Oak Leaf, Texas
Current Conditions -  °F | °C
As of 11:15 AM on Sunday 23 Nov 2014 (Local Time) from KJWY Reporting Station
Clear Clear  
Wind Chill: 67°   Ceiling: Unl
Heat Index: 67°   Visibility: 10mi
Dew Point: 53°   Wind: 14mph
Humidity: 60%   Direction: 230°SW
Pressure: 29.51"   Gusts: 20mph
Location:  32.515°N, 96.8153°W
Report Text: KJWY 231715Z AUTO 23012G17KT 10SM CLR 19/11 A2951 RMK AO2 T01940114
Loading
Personal Weather Stations






























Interactive Weather Map New forecast layout! Learn more

10-Day Weather Forecast

Advertisements
Track Severe Weather on mobile